sensor_id;sensor_type;location;lat;lon;timestamp;pressure;altitude;pressure_sealevel;temperature;humidity
13209;BME280;6669;42.678;23.332;2023-04-02T00:01:25;93669.47;;;7.91;100.00
13209;BME280;6669;42.678;23.332;2023-04-02T00:04:16;93665.06;;;7.91;100.00
13209;BME280;6669;42.678;23.332;2023-04-02T00:06:50;93662.66;;;7.90;100.00
13209;BME280;6669;42.678;23.332;2023-04-02T00:09:31;93671.06;;;7.92;100.00
13209;BME280;6669;42.678;23.332;2023-04-02T00:12:15;93661.69;;;7.91;100.00
13209;BME280;6669;42.678;23.332;2023-04-02T00:14:54;93653.66;;;7.85;100.00
13209;BME280;6669;42.678;23.332;2023-04-02T00:17:23;93660.88;;;7.90;100.00
13209;BME280;6669;42.678;23.332;2023-04-02T00:19:56;93659.63;;;7.86;100.00
13209;BME280;6669;42.678;23.332;2023-04-02T00:22:27;93649.53;;;7.76;100.00
13209;BME280;6669;42.678;23.332;2023-04-02T00:25:00;93659.44;;;7.88;100.00
13209;BME280;6669;42.678;23.332;2023-04-02T00:27:30;93640.34;;;7.74;100.00
13209;BME280;6669;42.678;23.332;2023-04-02T00:29:58;93656.84;;;7.88;100.00
13209;BME280;6669;42.678;23.332;2023-04-02T00:32:29;93659.81;;;7.84;100.00
13209;BME280;6669;42.678;23.332;2023-04-02T00:34:58;93636.47;;;7.78;100.00
13209;BME280;6669;42.678;23.332;2023-04-02T00:37:28;93652.59;;;7.95;100.00
13209;BME280;6669;42.678;23.332;2023-04-02T00:40:08;93632.78;;;7.87;100.00
13209;BME280;6669;42.678;23.332;2023-04-02T00:42:43;93658.28;;;8.05;100.00
13209;BME280;6669;42.678;23.332;2023-04-02T00:45:18;93652.22;;;8.13;100.00
13209;BME280;6669;42.678;23.332;2023-04-02T00:47:49;93641.38;;;8.24;100.00
13209;BME280;6669;42.678;23.332;2023-04-02T00:50:22;93658.00;;;8.30;100.00
13209;BME280;6669;42.678;23.332;2023-04-02T00:52:53;93660.59;;;8.30;100.00
13209;BME280;6669;42.678;23.332;2023-04-02T00:55:24;93653.88;;;8.35;100.00
13209;BME280;6669;42.678;23.332;2023-04-02T00:57:57;93635.41;;;8.24;100.00
13209;BME280;6669;42.678;23.332;2023-04-02T01:00:27;93642.63;;;8.28;100.00
13209;BME280;6669;42.678;23.332;2023-04-02T01:03:27;93648.25;;;8.32;100.00
13209;BME280;6669;42.678;23.332;2023-04-02T01:05:59;93651.75;;;8.24;100.00
13209;BME280;6669;42.678;23.332;2023-04-02T01:08:42;93643.00;;;8.25;100.00
13209;BME280;6669;42.678;23.332;2023-04-02T01:11:20;93648.19;;;8.25;100.00
13209;BME280;6669;42.678;23.332;2023-04-02T01:13:57;93656.84;;;8.17;100.00
13209;BME280;6669;42.678;23.332;2023-04-02T01:16:38;93652.56;;;8.25;100.00
13209;BME280;6669;42.678;23.332;2023-04-02T01:19:32;93648.72;;;8.21;100.00
13209;BME280;6669;42.678;23.332;2023-04-02T01:22:09;93645.88;;;8.15;100.00
13209;BME280;6669;42.678;23.332;2023-04-02T01:24:41;93643.00;;;8.10;100.00
13209;BME280;6669;42.678;23.332;2023-04-02T01:27:15;93666.75;;;8.29;100.00
13209;BME280;6669;42.678;23.332;2023-04-02T01:29:50;93662.47;;;7.91;100.00
13209;BME280;6669;42.678;23.332;2023-04-02T01:32:22;93675.56;;;7.60;100.00
13209;BME280;6669;42.678;23.332;2023-04-02T01:34:51;93658.59;;;7.27;100.00
13209;BME280;6669;42.678;23.332;2023-04-02T01:37:31;93669.72;;;7.13;100.00
13209;BME280;6669;42.678;23.332;2023-04-02T01:40:17;93671.31;;;6.91;100.00
13209;BME280;6669;42.678;23.332;2023-04-02T01:42:52;93671.78;;;6.71;100.00
13209;BME280;6669;42.678;23.332;2023-04-02T01:45:24;93653.34;;;6.51;100.00
13209;BME280;6669;42.678;23.332;2023-04-02T01:47:52;93634.22;;;6.37;100.00
13209;BME280;6669;42.678;23.332;2023-04-02T01:50:25;93658.34;;;6.52;100.00
13209;BME280;6669;42.678;23.332;2023-04-02T01:52:59;93659.03;;;6.46;100.00
13209;BME280;6669;42.678;23.332;2023-04-02T01:55:33;93661.97;;;6.35;100.00
13209;BME280;6669;42.678;23.332;2023-04-02T01:58:03;93654.72;;;6.38;100.00
13209;BME280;6669;42.678;23.332;2023-04-02T02:00:34;93649.47;;;6.24;100.00
13209;BME280;6669;42.678;23.332;2023-04-02T02:03:04;93656.22;;;6.25;100.00
13209;BME280;6669;42.678;23.332;2023-04-02T02:05:34;93644.66;;;6.20;100.00
13209;BME280;6669;42.678;23.332;2023-04-02T02:08:15;93661.88;;;6.28;100.00
13209;BME280;6669;42.678;23.332;2023-04-02T02:10:48;93652.34;;;6.29;100.00
13209;BME280;6669;42.678;23.332;2023-04-02T02:13:16;93654.59;;;6.32;100.00
13209;BME280;6669;42.678;23.332;2023-04-02T02:15:45;93652.81;;;6.32;100.00
13209;BME280;6669;42.678;23.332;2023-04-02T02:18:16;93640.59;;;6.26;100.00
13209;BME280;6669;42.678;23.332;2023-04-02T02:20:46;93649.47;;;6.24;100.00
13209;BME280;6669;42.678;23.332;2023-04-02T02:23:14;93660.91;;;6.21;100.00
13209;BME280;6669;42.678;23.332;2023-04-02T02:25:44;93637.94;;;6.03;100.00
13209;BME280;6669;42.678;23.332;2023-04-02T02:28:16;93659.19;;;6.13;100.00
13209;BME280;6669;42.678;23.332;2023-04-02T02:30:48;93659.19;;;6.13;100.00
13209;BME280;6669;42.678;23.332;2023-04-02T02:33:20;93645.06;;;6.01;100.00
13209;BME280;6669;42.678;23.332;2023-04-02T02:35:52;93637.69;;;6.21;100.00
13209;BME280;6669;42.678;23.332;2023-04-02T02:38:31;93651.03;;;6.33;100.00
13209;BME280;6669;42.678;23.332;2023-04-02T02:41:07;93650.19;;;6.41;100.00
13209;BME280;6669;42.678;23.332;2023-04-02T02:43:40;93639.03;;;6.40;100.00
13209;BME280;6669;42.678;23.332;2023-04-02T02:46:13;93648.66;;;6.54;100.00
13209;BME280;6669;42.678;23.332;2023-04-02T02:48:45;93656.50;;;6.61;100.00
13209;BME280;6669;42.678;23.332;2023-04-02T02:51:19;93652.78;;;6.64;100.00
13209;BME280;6669;42.678;23.332;2023-04-02T02:53:49;93650.72;;;6.59;100.00
13209;BME280;6669;42.678;23.332;2023-04-02T02:56:20;93656.59;;;6.76;100.00
13209;BME280;6669;42.678;23.332;2023-04-02T02:58:50;93657.16;;;6.86;100.00
13209;BME280;6669;42.678;23.332;2023-04-02T03:01:20;93664.22;;;6.93;100.00
13209;BME280;6669;42.678;23.332;2023-04-02T03:03:51;93662.59;;;6.92;100.00
13209;BME280;6669;42.678;23.332;2023-04-02T03:06:21;93657.66;;;6.82;100.00
13209;BME280;6669;42.678;23.332;2023-04-02T03:08:53;93658.41;;;6.67;100.00
13209;BME280;6669;42.678;23.332;2023-04-02T03:11:29;93661.88;;;6.51;100.00
13209;BME280;6669;42.678;23.332;2023-04-02T03:14:06;93659.56;;;6.33;100.00
13209;BME280;6669;42.678;23.332;2023-04-02T03:16:43;93663.06;;;6.17;100.00
13209;BME280;6669;42.678;23.332;2023-04-02T03:19:23;93663.44;;;6.06;100.00
13209;BME280;6669;42.678;23.332;2023-04-02T03:21:56;93658.94;;;6.00;100.00
13209;BME280;6669;42.678;23.332;2023-04-02T03:24:33;93651.03;;;5.93;100.00
13209;BME280;6669;42.678;23.332;2023-04-02T03:27:05;93668.44;;;5.91;100.00
13209;BME280;6669;42.678;23.332;2023-04-02T03:29:40;93664.28;;;5.98;100.00
13209;BME280;6669;42.678;23.332;2023-04-02T03:32:15;93675.88;;;5.86;100.00
13209;BME280;6669;42.678;23.332;2023-04-02T03:34:48;93680.72;;;5.81;100.00
13209;BME280;6669;42.678;23.332;2023-04-02T03:37:21;93675.75;;;5.71;100.00
13209;BME280;6669;42.678;23.332;2023-04-02T03:39:53;93681.72;;;5.71;100.00
13209;BME280;6669;42.678;23.332;2023-04-02T03:42:24;93659.19;;;5.57;100.00
13209;BME280;6669;42.678;23.332;2023-04-02T03:44:56;93654.41;;;5.37;100.00
13209;BME280;6669;42.678;23.332;2023-04-02T03:47:31;93646.16;;;5.42;100.00
13209;BME280;6669;42.678;23.332;2023-04-02T03:50:02;93675.47;;;5.57;100.00
13209;BME280;6669;42.678;23.332;2023-04-02T03:52:33;93674.66;;;5.57;100.00
13209;BME280;6669;42.678;23.332;2023-04-02T03:55:10;93674.66;;;5.57;100.00
13209;BME280;6669;42.678;23.332;2023-04-02T03:57:46;93661.31;;;5.37;100.00
13209;BME280;6669;42.678;23.332;2023-04-02T04:00:23;93678.09;;;5.24;100.00
13209;BME280;6669;42.678;23.332;2023-04-02T04:02:57;93672.31;;;5.06;100.00
13209;BME280;6669;42.678;23.332;2023-04-02T04:05:31;93678.59;;;5.20;100.00
13209;BME280;6669;42.678;23.332;2023-04-02T04:08:03;93665.72;;;5.12;100.00
13209;BME280;6669;42.678;23.332;2023-04-02T04:10:33;93678.44;;;5.13;100.00
13209;BME280;6669;42.678;23.332;2023-04-02T04:13:05;93679.25;;;5.22;100.00
13209;BME280;6669;42.678;23.332;2023-04-02T04:15:37;93672.00;;;5.09;100.00
13209;BME280;6669;42.678;23.332;2023-04-02T04:18:17;93683.06;;;5.18;100.00
13209;BME280;6669;42.678;23.332;2023-04-02T04:20:52;93655.91;;;4.90;100.00
13209;BME280;6669;42.678;23.332;2023-04-02T04:23:26;93691.00;;;5.08;100.00
13209;BME280;6669;42.678;23.332;2023-04-02T04:25:58;93699.66;;;5.15;100.00
13209;BME280;6669;42.678;23.332;2023-04-02T04:28:32;93695.31;;;5.07;100.00
13209;BME280;6669;42.678;23.332;2023-04-02T04:31:13;93699.34;;;5.10;100.00
13209;BME280;6669;42.678;23.332;2023-04-02T04:33:52;93702.56;;;5.12;100.00
13209;BME280;6669;42.678;23.332;2023-04-02T04:36:30;93697.91;;;4.99;100.00
13209;BME280;6669;42.678;23.332;2023-04-02T04:39:12;93713.69;;;5.04;100.00
13209;BME280;6669;42.678;23.332;2023-04-02T04:41:41;93703.56;;;5.03;100.00
13209;BME280;6669;42.678;23.332;2023-04-02T04:44:14;93720.78;;;5.11;100.00
13209;BME280;6669;42.678;23.332;2023-04-02T04:46:47;93715.94;;;5.07;100.00
13209;BME280;6669;42.678;23.332;2023-04-02T04:49:22;93703.38;;;5.04;100.00
13209;BME280;6669;42.678;23.332;2023-04-02T04:51:56;93689.34;;;4.99;100.00
13209;BME280;6669;42.678;23.332;2023-04-02T04:54:26;93703.22;;;5.14;100.00
13209;BME280;6669;42.678;23.332;2023-04-02T04:56:56;93720.13;;;5.33;100.00
13209;BME280;6669;42.678;23.332;2023-04-02T04:59:30;93724.31;;;5.43;100.00
13209;BME280;6669;42.678;23.332;2023-04-02T05:02:03;93697.09;;;5.32;100.00
13209;BME280;6669;42.678;23.332;2023-04-02T05:04:36;93710.59;;;5.50;100.00
13209;BME280;6669;42.678;23.332;2023-04-02T05:07:08;93715.25;;;5.63;100.00
13209;BME280;6669;42.678;23.332;2023-04-02T05:09:41;93710.56;;;5.67;100.00
13209;BME280;6669;42.678;23.332;2023-04-02T05:12:16;93712.00;;;5.78;100.00
13209;BME280;6669;42.678;23.332;2023-04-02T05:14:50;93710.84;;;5.80;100.00
13209;BME280;6669;42.678;23.332;2023-04-02T05:17:27;93724.06;;;5.85;100.00
13209;BME280;6669;42.678;23.332;2023-04-02T05:20:02;93730.53;;;5.89;100.00
13209;BME280;6669;42.678;23.332;2023-04-02T05:22:36;93719.53;;;5.96;100.00
13209;BME280;6669;42.678;23.332;2023-04-02T05:25:19;93723.59;;;5.98;100.00
13209;BME280;6669;42.678;23.332;2023-04-02T05:27:53;93718.22;;;6.08;100.00
13209;BME280;6669;42.678;23.332;2023-04-02T05:30:46;93729.03;;;6.12;100.00
13209;BME280;6669;42.678;23.332;2023-04-02T05:33:22;93729.03;;;6.12;100.00
13209;BME280;6669;42.678;23.332;2023-04-02T05:35:57;93721.81;;;6.07;100.00
13209;BME280;6669;42.678;23.332;2023-04-02T05:38:27;93745.28;;;6.29;100.00
13209;BME280;6669;42.678;23.332;2023-04-02T05:41:02;93739.94;;;6.30;100.00
13209;BME280;6669;42.678;23.332;2023-04-02T05:43:32;93736.50;;;6.38;100.00
13209;BME280;6669;42.678;23.332;2023-04-02T05:46:06;93737.28;;;6.47;100.00
13209;BME280;6669;42.678;23.332;2023-04-02T05:48:40;93748.03;;;6.59;100.00
13209;BME280;6669;42.678;23.332;2023-04-02T05:51:17;93714.66;;;6.49;100.00
13209;BME280;6669;42.678;23.332;2023-04-02T05:53:50;93747.94;;;6.75;100.00
13209;BME280;6669;42.678;23.332;2023-04-02T05:56:21;93748.88;;;6.82;100.00
13209;BME280;6669;42.678;23.332;2023-04-02T05:58:53;93750.78;;;6.89;100.00
13209;BME280;6669;42.678;23.332;2023-04-02T06:01:29;93735.34;;;6.80;100.00
13209;BME280;6669;42.678;23.332;2023-04-02T06:04:02;93732.66;;;6.97;100.00
13209;BME280;6669;42.678;23.332;2023-04-02T06:06:54;93755.72;;;7.22;100.00
13209;BME280;6669;42.678;23.332;2023-04-02T06:09:30;93767.28;;;7.34;100.00
13209;BME280;6669;42.678;23.332;2023-04-02T06:12:12;93741.81;;;7.23;100.00
13209;BME280;6669;42.678;23.332;2023-04-02T06:14:43;93757.50;;;7.44;100.00
13209;BME280;6669;42.678;23.332;2023-04-02T06:17:13;93771.63;;;7.57;100.00
13209;BME280;6669;42.678;23.332;2023-04-02T06:19:42;93763.50;;;7.60;100.00
13209;BME280;6669;42.678;23.332;2023-04-02T06:22:21;93766.13;;;7.75;100.00
13209;BME280;6669;42.678;23.332;2023-04-02T06:24:52;93760.78;;;7.76;100.00
13209;BME280;6669;42.678;23.332;2023-04-02T06:27:23;93770.81;;;7.94;100.00
13209;BME280;6669;42.678;23.332;2023-04-02T06:29:57;93767.63;;;8.07;100.00
13209;BME280;6669;42.678;23.332;2023-04-02T06:32:26;93773.59;;;8.23;100.00
13209;BME280;6669;42.678;23.332;2023-04-02T06:34:55;93754.84;;;8.21;100.00
13209;BME280;6669;42.678;23.332;2023-04-02T06:37:27;93763.72;;;8.41;100.00
13209;BME280;6669;42.678;23.332;2023-04-02T06:39:58;93757.88;;;8.39;100.00
13209;BME280;6669;42.678;23.332;2023-04-02T06:42:30;93765.13;;;8.44;100.00
13209;BME280;6669;42.678;23.332;2023-04-02T06:44:59;93765.13;;;8.59;100.00
13209;BME280;6669;42.678;23.332;2023-04-02T06:47:30;93742.91;;;8.49;100.00
13209;BME280;6669;42.678;23.332;2023-04-02T06:50:05;93783.06;;;8.75;100.00
13209;BME280;6669;42.678;23.332;2023-04-02T06:52:39;93775.28;;;8.90;100.00
13209;BME280;6669;42.678;23.332;2023-04-02T06:55:25;93780.97;;;9.00;100.00
13209;BME280;6669;42.678;23.332;2023-04-02T06:57:55;93766.97;;;8.95;100.00
13209;BME280;6669;42.678;23.332;2023-04-02T07:00:27;93783.53;;;9.15;100.00
13209;BME280;6669;42.678;23.332;2023-04-02T07:02:58;93762.28;;;9.05;100.00
13209;BME280;6669;42.678;23.332;2023-04-02T07:05:27;93781.22;;;9.27;100.00
13209;BME280;6669;42.678;23.332;2023-04-02T07:07:57;93790.94;;;9.40;100.00
13209;BME280;6669;42.678;23.332;2023-04-02T07:10:25;93788.41;;;9.47;100.00
13209;BME280;6669;42.678;23.332;2023-04-02T07:12:53;93779.31;;;9.58;100.00
13209;BME280;6669;42.678;23.332;2023-04-02T07:15:21;93787.22;;;9.71;100.00
13209;BME280;6669;42.678;23.332;2023-04-02T07:17:51;93788.06;;;9.78;100.00
13209;BME280;6669;42.678;23.332;2023-04-02T07:20:25;93784.50;;;9.79;100.00
13209;BME280;6669;42.678;23.332;2023-04-02T07:22:56;93780.28;;;9.78;100.00
13209;BME280;6669;42.678;23.332;2023-04-02T07:25:26;93794.25;;;9.99;100.00
13209;BME280;6669;42.678;23.332;2023-04-02T07:27:54;93792.88;;;10.03;100.00
13209;BME280;6669;42.678;23.332;2023-04-02T07:30:22;93794.34;;;10.19;100.00
13209;BME280;6669;42.678;23.332;2023-04-02T07:32:50;93781.56;;;10.18;100.00
13209;BME280;6669;42.678;23.332;2023-04-02T07:35:18;93790.72;;;10.42;100.00
13209;BME280;6669;42.678;23.332;2023-04-02T07:37:46;93787.38;;;10.48;100.00
13209;BME280;6669;42.678;23.332;2023-04-02T07:40:18;93776.25;;;10.61;100.00
13209;BME280;6669;42.678;23.332;2023-04-02T07:42:48;93771.91;;;10.75;100.00
13209;BME280;6669;42.678;23.332;2023-04-02T07:45:17;93793.63;;;11.02;100.00
13209;BME280;6669;42.678;23.332;2023-04-02T07:47:45;93800.25;;;11.11;100.00
13209;BME280;6669;42.678;23.332;2023-04-02T07:50:13;93815.66;;;11.13;100.00
13209;BME280;6669;42.678;23.332;2023-04-02T07:52:42;93793.63;;;11.09;100.00
13209;BME280;6669;42.678;23.332;2023-04-02T07:55:11;93797.28;;;11.21;100.00
13209;BME280;6669;42.678;23.332;2023-04-02T07:57:47;93799.31;;;11.39;100.00
13209;BME280;6669;42.678;23.332;2023-04-02T08:00:16;93780.91;;;11.41;100.00
13209;BME280;6669;42.678;23.332;2023-04-02T08:02:44;93789.34;;;11.63;100.00
13209;BME280;6669;42.678;23.332;2023-04-02T08:05:12;93786.97;;;11.75;100.00
13209;BME280;6669;42.678;23.332;2023-04-02T08:07:41;93789.53;;;11.61;99.08
13209;BME280;6669;42.678;23.332;2023-04-02T08:10:10;93806.38;;;11.72;100.00
13209;BME280;6669;42.678;23.332;2023-04-02T08:12:39;93810.78;;;11.72;98.90
13209;BME280;6669;42.678;23.332;2023-04-02T08:15:12;93804.53;;;11.53;94.85
13209;BME280;6669;42.678;23.332;2023-04-02T08:17:41;93811.09;;;11.28;96.80
13209;BME280;6669;42.678;23.332;2023-04-02T08:20:13;93815.31;;;11.36;97.30
13209;BME280;6669;42.678;23.332;2023-04-02T08:22:41;93820.16;;;11.53;97.98
13209;BME280;6669;42.678;23.332;2023-04-02T08:25:09;93816.75;;;11.52;94.85
13209;BME280;6669;42.678;23.332;2023-04-02T08:27:37;93809.00;;;11.72;97.76
13209;BME280;6669;42.678;23.332;2023-04-02T08:30:07;93812.41;;;11.86;95.48
13209;BME280;6669;42.678;23.332;2023-04-02T08:32:37;93813.63;;;12.04;96.45
13209;BME280;6669;42.678;23.332;2023-04-02T08:35:07;93811.44;;;12.21;91.03
13209;BME280;6669;42.678;23.332;2023-04-02T08:37:36;93827.06;;;12.14;90.11
13209;BME280;6669;42.678;23.332;2023-04-02T08:40:06;93802.19;;;12.05;88.23
13209;BME280;6669;42.678;23.332;2023-04-02T08:42:38;93813.84;;;12.16;85.49
13209;BME280;6669;42.678;23.332;2023-04-02T08:45:17;93804.59;;;12.20;83.49
13209;BME280;6669;42.678;23.332;2023-04-02T08:47:53;93814.59;;;12.43;85.17
13209;BME280;6669;42.678;23.332;2023-04-02T08:50:27;93824.19;;;12.69;90.63
13209;BME280;6669;42.678;23.332;2023-04-02T08:52:57;93812.47;;;12.85;90.25
13209;BME280;6669;42.678;23.332;2023-04-02T08:55:33;93819.41;;;13.12;90.27
13209;BME280;6669;42.678;23.332;2023-04-02T08:58:08;93793.56;;;13.03;82.71
13209;BME280;6669;42.678;23.332;2023-04-02T09:00:42;93815.19;;;13.11;80.00
13209;BME280;6669;42.678;23.332;2023-04-02T09:03:16;93815.81;;;13.13;83.09
13209;BME280;6669;42.678;23.332;2023-04-02T09:05:45;93810.28;;;13.41;86.42
13209;BME280;6669;42.678;23.332;2023-04-02T09:08:17;93811.16;;;13.60;83.50
13209;BME280;6669;42.678;23.332;2023-04-02T09:10:50;93806.72;;;13.67;81.75
13209;BME280;6669;42.678;23.332;2023-04-02T09:13:22;93828.09;;;13.51;76.45
13209;BME280;6669;42.678;23.332;2023-04-02T09:15:55;93818.13;;;13.34;74.97
13209;BME280;6669;42.678;23.332;2023-04-02T09:18:29;93808.38;;;13.16;73.36
13209;BME280;6669;42.678;23.332;2023-04-02T09:20:59;93780.13;;;13.00;73.06
13209;BME280;6669;42.678;23.332;2023-04-02T09:23:30;93811.91;;;13.29;73.72
13209;BME280;6669;42.678;23.332;2023-04-02T09:25:58;93777.09;;;13.48;79.82
13209;BME280;6669;42.678;23.332;2023-04-02T09:28:30;93806.97;;;13.84;81.09
13209;BME280;6669;42.678;23.332;2023-04-02T09:31:03;93798.00;;;14.05;80.68
13209;BME280;6669;42.678;23.332;2023-04-02T09:33:42;93801.75;;;13.84;79.18
13209;BME280;6669;42.678;23.332;2023-04-02T09:36:24;93813.72;;;13.99;79.27
13209;BME280;6669;42.678;23.332;2023-04-02T09:38:58;93796.97;;;13.81;77.56
13209;BME280;6669;42.678;23.332;2023-04-02T09:41:28;93794.75;;;13.85;74.61
13209;BME280;6669;42.678;23.332;2023-04-02T09:44:18;93802.97;;;13.82;77.27
13209;BME280;6669;42.678;23.332;2023-04-02T09:46:51;93784.34;;;14.03;78.48
13209;BME280;6669;42.678;23.332;2023-04-02T09:49:23;93782.59;;;14.41;76.47
13209;BME280;6669;42.678;23.332;2023-04-02T09:52:20;93787.97;;;14.46;77.35
13209;BME280;6669;42.678;23.332;2023-04-02T09:55:18;93793.44;;;14.45;73.15
13209;BME280;6669;42.678;23.332;2023-04-02T09:57:49;93796.06;;;14.19;69.84
13209;BME280;6669;42.678;23.332;2023-04-02T10:00:20;93766.03;;;13.78;69.59
13209;BME280;6669;42.678;23.332;2023-04-02T10:03:03;93793.47;;;13.94;71.10
13209;BME280;6669;42.678;23.332;2023-04-02T10:05:33;93780.44;;;13.62;67.17
13209;BME280;6669;42.678;23.332;2023-04-02T10:08:06;93789.09;;;13.88;66.79
13209;BME280;6669;42.678;23.332;2023-04-02T10:10:38;93773.84;;;13.85;66.29
13209;BME280;6669;42.678;23.332;2023-04-02T10:13:16;93781.69;;;14.10;67.33
13209;BME280;6669;42.678;23.332;2023-04-02T10:15:48;93775.78;;;14.15;64.75
13209;BME280;6669;42.678;23.332;2023-04-02T10:18:23;93766.66;;;14.24;66.86
13209;BME280;6669;42.678;23.332;2023-04-02T10:20:58;93759.16;;;14.34;65.89
13209;BME280;6669;42.678;23.332;2023-04-02T10:23:29;93770.63;;;14.33;68.62
13209;BME280;6669;42.678;23.332;2023-04-02T10:26:07;93755.91;;;14.14;71.17
13209;BME280;6669;42.678;23.332;2023-04-02T10:28:51;93774.25;;;14.32;71.82
13209;BME280;6669;42.678;23.332;2023-04-02T10:31:24;93768.56;;;14.35;71.65
13209;BME280;6669;42.678;23.332;2023-04-02T10:33:59;93761.38;;;14.31;72.10
13209;BME280;6669;42.678;23.332;2023-04-02T10:36:37;93769.03;;;14.51;72.23
13209;BME280;6669;42.678;23.332;2023-04-02T10:39:13;93771.66;;;14.51;72.47
13209;BME280;6669;42.678;23.332;2023-04-02T10:41:46;93771.81;;;14.56;73.00
13209;BME280;6669;42.678;23.332;2023-04-02T10:44:46;93765.53;;;14.57;69.94
13209;BME280;6669;42.678;23.332;2023-04-02T10:47:32;93763.13;;;15.11;69.08
13209;BME280;6669;42.678;23.332;2023-04-02T10:50:20;93741.94;;;14.82;68.60
13209;BME280;6669;42.678;23.332;2023-04-02T10:52:57;93754.88;;;14.77;68.80
13209;BME280;6669;42.678;23.332;2023-04-02T10:55:29;93757.81;;;14.62;68.22
13209;BME280;6669;42.678;23.332;2023-04-02T10:58:04;93750.47;;;14.78;67.10
13209;BME280;6669;42.678;23.332;2023-04-02T11:00:38;93760.88;;;14.59;68.58
13209;BME280;6669;42.678;23.332;2023-04-02T11:03:12;93754.97;;;14.70;67.81
13209;BME280;6669;42.678;23.332;2023-04-02T11:05:42;93749.47;;;15.82;66.53
13209;BME280;6669;42.678;23.332;2023-04-02T11:08:19;93735.09;;;16.67;62.47
13209;BME280;6669;42.678;23.332;2023-04-02T11:10:55;93755.50;;;17.47;61.66
13209;BME280;6669;42.678;23.332;2023-04-02T11:13:30;93750.69;;;17.27;60.09
13209;BME280;6669;42.678;23.332;2023-04-02T11:16:00;93745.38;;;17.10;60.74
13209;BME280;6669;42.678;23.332;2023-04-02T11:18:30;93753.63;;;17.30;60.79
13209;BME280;6669;42.678;23.332;2023-04-02T11:21:04;93751.63;;;17.21;59.74
13209;BME280;6669;42.678;23.332;2023-04-02T11:23:50;93745.06;;;16.30;60.77
13209;BME280;6669;42.678;23.332;2023-04-02T11:26:39;93755.06;;;15.85;61.66
13209;BME280;6669;42.678;23.332;2023-04-02T11:29:14;93742.59;;;15.27;62.56
13209;BME280;6669;42.678;23.332;2023-04-02T11:31:43;93742.47;;;15.22;63.24
13209;BME280;6669;42.678;23.332;2023-04-02T11:34:14;93744.53;;;15.62;62.90
13209;BME280;6669;42.678;23.332;2023-04-02T11:37:00;93748.03;;;16.22;62.24
13209;BME280;6669;42.678;23.332;2023-04-02T11:39:48;93733.56;;;16.83;60.83
13209;BME280;6669;42.678;23.332;2023-04-02T11:42:27;93736.22;;;17.87;58.11
13209;BME280;6669;42.678;23.332;2023-04-02T11:45:00;93724.25;;;18.70;57.43
13209;BME280;6669;42.678;23.332;2023-04-02T11:47:28;93717.91;;;19.15;57.04
13209;BME280;6669;42.678;23.332;2023-04-02T11:50:01;93734.44;;;19.05;54.41
13209;BME280;6669;42.678;23.332;2023-04-02T11:52:34;93736.59;;;18.69;55.44
13209;BME280;6669;42.678;23.332;2023-04-02T11:55:30;93734.28;;;18.34;55.31
13209;BME280;6669;42.678;23.332;2023-04-02T12:04:22;93725.22;;;17.73;56.38
13209;BME280;6669;42.678;23.332;2023-04-02T12:07:17;93724.63;;;17.54;56.87
13209;BME280;6669;42.678;23.332;2023-04-02T12:09:55;93722.56;;;17.56;55.71
13209;BME280;6669;42.678;23.332;2023-04-02T12:12:31;93721.38;;;17.18;56.30
13209;BME280;6669;42.678;23.332;2023-04-02T12:15:00;93711.50;;;17.54;56.30
13209;BME280;6669;42.678;23.332;2023-04-02T12:17:30;93711.69;;;17.99;55.68
13209;BME280;6669;42.678;23.332;2023-04-02T12:20:00;93717.81;;;17.24;55.70
13209;BME280;6669;42.678;23.332;2023-04-02T12:22:37;93731.78;;;17.13;56.67
13209;BME280;6669;42.678;23.332;2023-04-02T12:25:20;93720.59;;;17.35;57.56
13209;BME280;6669;42.678;23.332;2023-04-02T12:28:04;93727.84;;;17.90;57.40
13209;BME280;6669;42.678;23.332;2023-04-02T12:30:33;93712.91;;;18.47;55.05
13209;BME280;6669;42.678;23.332;2023-04-02T12:33:15;93717.31;;;18.63;54.73
13209;BME280;6669;42.678;23.332;2023-04-02T12:35:45;93731.94;;;18.15;54.68
13209;BME280;6669;42.678;23.332;2023-04-02T12:38:19;93724.25;;;18.30;54.21
13209;BME280;6669;42.678;23.332;2023-04-02T12:40:51;93711.41;;;18.34;53.35
13209;BME280;6669;42.678;23.332;2023-04-02T12:43:28;93705.41;;;18.39;54.29
13209;BME280;6669;42.678;23.332;2023-04-02T12:45:58;93703.13;;;18.65;52.67
13209;BME280;6669;42.678;23.332;2023-04-02T12:48:28;93711.63;;;19.43;52.35
13209;BME280;6669;42.678;23.332;2023-04-02T12:50:57;93706.47;;;20.24;52.63
13209;BME280;6669;42.678;23.332;2023-04-02T12:53:29;93706.50;;;20.77;51.06
13209;BME280;6669;42.678;23.332;2023-04-02T12:55:59;93700.22;;;20.40;50.47
13209;BME280;6669;42.678;23.332;2023-04-02T12:58:31;93702.97;;;19.81;50.46
13209;BME280;6669;42.678;23.332;2023-04-02T13:01:11;93704.63;;;19.27;51.21
13209;BME280;6669;42.678;23.332;2023-04-02T13:03:39;93700.19;;;19.33;51.42
13209;BME280;6669;42.678;23.332;2023-04-02T13:06:20;93684.19;;;19.72;50.66
13209;BME280;6669;42.678;23.332;2023-04-02T13:08:49;93694.84;;;20.20;50.39
13209;BME280;6669;42.678;23.332;2023-04-02T13:11:17;93676.47;;;20.94;50.74
13209;BME280;6669;42.678;23.332;2023-04-02T13:13:48;93675.25;;;21.63;48.78
13209;BME280;6669;42.678;23.332;2023-04-02T13:16:28;93692.97;;;21.94;48.14
13209;BME280;6669;42.678;23.332;2023-04-02T13:19:20;93675.00;;;21.96;48.33
13209;BME280;6669;42.678;23.332;2023-04-02T13:21:49;93671.16;;;22.64;47.19
13209;BME280;6669;42.678;23.332;2023-04-02T13:24:19;93694.00;;;22.44;47.54
13209;BME280;6669;42.678;23.332;2023-04-02T13:26:47;93684.03;;;22.91;46.91
13209;BME280;6669;42.678;23.332;2023-04-02T13:29:27;93693.25;;;21.77;46.33
13209;BME280;6669;42.678;23.332;2023-04-02T13:31:58;93695.66;;;20.73;47.13
13209;BME280;6669;42.678;23.332;2023-04-02T13:34:27;93691.03;;;20.05;48.16
13209;BME280;6669;42.678;23.332;2023-04-02T13:36:55;93692.34;;;19.70;48.60
13209;BME280;6669;42.678;23.332;2023-04-02T13:39:24;93679.06;;;19.87;48.86
13209;BME280;6669;42.678;23.332;2023-04-02T13:41:55;93667.25;;;20.43;48.27